Flight Track Log - Related Links

Times and Time Zones

All times are in EDT time to prevent confusion due to time zone crossing. See the SWA240 flight status page for this flight to view local times or setup timezone preferences in your user account.

Time Position Orientation Groundspeed Altitude Reporting Facility
EDT Latitude Longitude Course Direction KTS MPH feet Rate Location/Type
Sat 10:18:19 PM 39.8167 -104.6833 270° West 187 215 7,000  Level Denver TRACON
Sat 10:19:19 PM 39.8167 -104.7667 270° West 284 327 8,800 1,750 Climbing Denver TRACON
Sat 10:20:19 PM 39.8167 -104.8667 274° West 305 351 10,500 1,774 Climbing Denver TRACON
Sat 10:21:14 PM 39.8222 -104.9831 243° Southwest 340 391 12,200 2,513 Climbing Denver Center
Sat 10:22:16 PM 39.7783 -105.0972 241° Southwest 344 396 15,400 2,585 Climbing Denver Center
Sat 10:23:17 PM 39.7314 -105.2069 241° Southwest 343 395 17,500 2,213 Climbing Denver Center
Sat 10:24:18 PM 39.6806 -105.3242 240° Southwest 362 417 19,900 2,195 Climbing Denver Center
Sat 10:25:20 PM 39.6297 -105.4406 240° Southwest 366 421 22,000 1,902 Climbing Denver Center
Sat 10:26:21 PM 39.5778 -105.5583 245° Southwest 371 427 23,800 1,770 Climbing Denver Center
Sat 10:27:22 PM 39.5325 -105.6842 251° West 381 438 25,600 1,574 Climbing Denver Center
Sat 10:28:23 PM 39.4906 -105.8392 251° West 387 445 27,000 2,195 Climbing Denver Center
Sat 10:29:25 PM 39.4558 -105.9714 250° West 386 444 30,100 2,146 Climbing Denver Center
Sat 10:30:26 PM 39.4208 -106.0928 236° Southwest 364 419 31,400 1,180 Climbing Denver Center
Sat 10:31:27 PM 39.3658 -106.1969 235° Southwest 374 430 32,500 1,033 Climbing Denver Center
Sat 10:32:28 PM 39.2994 -106.3183 235° Southwest 371 427 33,500 927 Climbing Denver Center
Sat 10:33:30 PM 39.2414 -106.4239 235° Southwest 374 430 34,400 683 Climbing Denver Center
Sat 10:34:31 PM 39.1822 -106.5328 234° Southwest 382 440 34,900 787 Climbing Denver Center
Sat 10:35:32 PM 39.1100 -106.6606 235° Southwest 392 451 36,000 541 Climbing Denver Center
Sat 10:36:33 PM 39.0494 -106.7708 234° Southwest 393 452 36,000  Level Denver Center
Sat 10:37:34 PM 38.9883 -106.8794 234° Southwest 391 450 36,000  Level Denver Center
Sat 10:38:36 PM 38.9172 -107.0069 235° Southwest 393 452 36,000  Level Denver Center
Sat 10:39:37 PM 38.8558 -107.1178 234° Southwest 394 453 36,000  Level Denver Center
Sat 10:40:38 PM 38.7933 -107.2278 234° Southwest 397 457 36,000  Level Denver Center
Sat 10:41:39 PM 38.7217 -107.3544 234° Southwest 394 453 36,000  Level Denver Center
Sat 10:42:40 PM 38.6606 -107.4633 234° Southwest 393 452 36,000  Level Denver Center
Sat 10:43:42 PM 38.5892 -107.5903 234° Southwest 393 452 36,000  Level Denver Center
Sat 10:44:43 PM 38.5267 -107.6994 234° Southwest 395 455 36,000  Level Denver Center
Sat 10:45:44 PM 38.4656 -107.8067 234° Southwest 392 451 36,000  Level Denver Center
Sat 10:46:45 PM 38.3933 -107.9314 234° Southwest 391 450 36,000  Level Denver Center
Sat 10:47:46 PM 38.3317 -108.0392 234° Southwest 392 451 36,000  Level Denver Center
Sat 10:48:47 PM 38.2708 -108.1444 234° Southwest 388 447 36,000  Level Denver Center
Sat 10:49:48 PM 38.1997 -108.2675 233° Southwest 387 445 36,000  Level Denver Center
Sat 10:50:50 PM 38.1372 -108.3733 233° Southwest 389 448 36,000  Level Denver Center
Sat 10:51:51 PM 38.0647 -108.4967 234° Southwest 390 449 36,000  Level Denver Center
Sat 10:52:52 PM 38.0028 -108.6031 233° Southwest 389 448 36,000  Level Denver Center
Sat 10:53:53 PM 37.9408 -108.7089 233° Southwest 389 448 36,000  Level Denver Center
Sat 10:54:54 PM 37.8667 -108.8331 233° Southwest 393 452 36,000  Level Denver Center
Sat 10:55:55 PM 37.8033 -108.9394 228° Southwest 395 455 36,000  Level Denver Center
Sat 10:56:56 PM 37.7339 -109.0369 229° Southwest 391 450 36,000  Level Denver Center
Sat 10:57:57 PM 37.6531 -109.1528 235° Southwest 393 452 36,000  Level Denver Center
Sat 10:58:58 PM 37.5933 -109.2614 237° Southwest 394 453 36,000  Level Denver Center
Sat 10:59:59 PM 37.5286 -109.3892 238° Southwest 393 452 36,000  Level Denver Center
Sat 11:01:00 PM 37.4731 -109.5003 237° Southwest 393 452 36,000  Level Denver Center
Sat 11:02:02 PM 37.4172 -109.6097 238° Southwest 390 449 36,000  Level Denver Center
Sat 11:03:03 PM 37.3531 -109.7364 237° Southwest 386 444 36,000  Level Denver Center
Sat 11:04:04 PM 37.2975 -109.8439 238° Southwest 386 444 36,000  Level Denver Center
Sat 11:05:05 PM 37.2431 -109.9522 237° Southwest 384 442 36,000  Level Denver Center
Sat 11:06:06 PM 37.1778 -110.0789 237° Southwest 386 444 36,000  Level Denver Center
Sat 11:07:07 PM 37.1175 -110.1958 237° Southwest 389 448 36,000  Level Denver Center
Sat 11:08:08 PM 37.0581 -110.3114 237° Southwest 388 447 36,000  Level Denver Center
Sat 11:09:09 PM 36.9967 -110.4286 237° Southwest 393 452 36,000  Level Denver Center
Sat 11:10:10 PM 36.9358 -110.5458 237° Southwest 395 455 36,000  Level Denver Center
Sat 11:11:11 PM 36.8747 -110.6619 237° Southwest 395 455 36,000  Level Denver Center
Sat 11:12:12 PM 36.8142 -110.7789 237° Southwest 394 453 36,000  Level Denver Center
Sat 11:13:13 PM 36.7525 -110.8967 236° Southwest 397 457 36,000  Level Denver Center
Sat 11:14:13 PM 36.6903 -111.0136 236° Southwest 398 458 36,000  Level Denver Center
Sat 11:15:14 PM 36.6275 -111.1308 236° Southwest 399 459 36,000  Level Denver Center
Sat 11:15:54 PM 36.5806 -111.2161 239° Southwest 415 478 36,000  Level Los Angeles Center
Sat 11:16:54 PM 36.5286 -111.3225 235° Southwest 407 468 36,000  Level Los Angeles Center
Sat 11:17:54 PM 36.4661 -111.4350 237° Southwest 401 461 36,000  Level Los Angeles Center
Sat 11:18:54 PM 36.4058 -111.5494 237° Southwest 406 467 36,000  Level Los Angeles Center
Sat 11:19:54 PM 36.3514 -111.6531 236° Southwest 406 467 36,000  Level Los Angeles Center
Sat 11:20:54 PM 36.2886 -111.7672 236° Southwest 406 467 36,000  Level Los Angeles Center
Sat 11:21:54 PM 36.2281 -111.8786 236° Southwest 406 467 36,000  Level Los Angeles Center
Sat 11:22:54 PM 36.1592 -112.0033 236° Southwest 401 461 36,000  Level Los Angeles Center
Sat 11:23:54 PM 36.0961 -112.1169 237° Southwest 401 461 36,000  Level Los Angeles Center
Sat 11:24:54 PM 36.0411 -112.2225 236° Southwest 406 467 36,000  Level Los Angeles Center
Sat 11:25:54 PM 35.9742 -112.3464 235° Southwest 401 461 36,000  Level Los Angeles Center
Sat 11:26:54 PM 35.9167 -112.4464 237° Southwest 401 461 36,000  Level Los Angeles Center
Sat 11:27:54 PM 35.8575 -112.5569 235° Southwest 401 461 36,000  Level Los Angeles Center
Sat 11:28:54 PM 35.7939 -112.6697 236° Southwest 401 461 36,000  Level Los Angeles Center
Sat 11:29:54 PM 35.7303 -112.7850 237° Southwest 406 467 36,000  Level Los Angeles Center
Sat 11:30:54 PM 35.6708 -112.8972 235° Southwest 406 467 36,000  Level Los Angeles Center
Sat 11:31:54 PM 35.6089 -113.0072 235° Southwest 395 455 36,000  Level Los Angeles Center
Sat 11:32:54 PM 35.5469 -113.1167 235° Southwest 395 455 36,000  Level Los Angeles Center
Sat 11:33:54 PM 35.4831 -113.2286 234° Southwest 400 460 36,000  Level Los Angeles Center
Sat 11:34:54 PM 35.4086 -113.3561 236° Southwest 419 482 36,000  Level Los Angeles Center
Sat 11:35:54 PM 35.3464 -113.4678 235° Southwest 419 482 36,000  Level Los Angeles Center
Sat 11:36:54 PM 35.2822 -113.5819 235° Southwest 414 476 36,000  Level Los Angeles Center
Sat 11:37:54 PM 35.2197 -113.6906 234° Southwest 414 476 36,000  Level Los Angeles Center
Sat 11:38:54 PM 35.1531 -113.8044 235° Southwest 414 476 36,000  Level Los Angeles Center
Sat 11:39:54 PM 35.0903 -113.9153 235° Southwest 414 476 36,000  Level Los Angeles Center
Sat 11:40:54 PM 35.0378 -114.0056 235° Southwest 390 449 36,000  Level Los Angeles Center
Sat 11:41:54 PM 34.9750 -114.1136 235° Southwest 390 449 36,000  Level Los Angeles Center
Sat 11:42:54 PM 34.9139 -114.2189 235° Southwest 390 449 36,000 -900 Level Los Angeles Center
Sat 11:43:54 PM 34.8489 -114.3317 235° Southwest 395 455 34,200 -1,900 Descending Los Angeles Center
Sat 11:44:54 PM 34.7858 -114.4394 226° Southwest 395 455 32,200 -1,100 Descending Los Angeles Center
Sat 11:45:54 PM 34.7056 -114.5394 225° Southwest 400 460 32,000 -100 Descending Los Angeles Center
Sat 11:46:54 PM 34.6153 -114.6497 223° Southwest 411 473 32,000  Level Los Angeles Center
Sat 11:47:54 PM 34.5308 -114.7444 222° Southwest 411 473 32,000  Level Los Angeles Center
Sat 11:48:54 PM 34.4483 -114.8339 226° Southwest 418 481 32,000  Level Los Angeles Center
Sat 11:49:54 PM 34.3678 -114.9333 221° Southwest 418 481 32,000  Level Los Angeles Center
Sat 11:50:54 PM 34.2811 -115.0253 222° Southwest 418 481 32,000  Level Los Angeles Center
Sat 11:51:54 PM 34.1983 -115.1167 223° Southwest 418 481 32,000  Level Los Angeles Center
Sat 11:52:54 PM 34.1156 -115.2106 223° Southwest 418 481 32,000  Level Los Angeles Center
Sat 11:53:54 PM 34.0328 -115.3042 223° Southwest 418 481 32,000  Level Los Angeles Center
Sat 11:54:54 PM 33.9500 -115.3975 222° Southwest 418 481 32,000  Level Los Angeles Center
Sat 11:55:54 PM 33.8647 -115.4908 222° Southwest 418 481 32,000  Level Los Angeles Center
Sat 11:56:54 PM 33.7797 -115.5839 224° Southwest 418 481 32,000 -750 Level Los Angeles Center
Sat 11:57:54 PM 33.6967 -115.6794 224° Southwest 418 481 30,500 -2,100 Descending Los Angeles Center
Sat 11:58:54 PM 33.6114 -115.7769 227° Southwest 418 481 27,800 -2,000 Descending Los Angeles Center
Sat 11:59:54 PM 33.5344 -115.8769 222° Southwest 418 481 26,500 -1,600 Descending Los Angeles Center
Sun 12:00:54 AM 33.4489 -115.9694 221° Southwest 408 470 24,600 -2,650 Descending Los Angeles Center
Sun 12:01:54 AM 33.3633 -116.0589 223° Southwest 408 470 21,200 -3,700 Descending Los Angeles Center
Sun 12:02:54 AM 33.2778 -116.1536 222° Southwest 413 475 17,200 -3,450 Descending Los Angeles Center
Sun 12:03:54 AM 33.1922 -116.2453 223° Southwest 419 482 14,300 -2,650 Descending Los Angeles Center
Sun 12:04:54 AM 33.1108 -116.3344 223° Southwest 419 482 11,900 -1,150 Descending Los Angeles Center
Sun 12:05:54 AM 33.0439 -116.4086 214° Southwest 376 433 12,000  Climbing Los Angeles Center
Sun 12:06:54 AM 32.9664 -116.4703 210° Southwest 362 417 11,900 -650 Descending Los Angeles Center
Sun 12:07:54 AM 32.8953 -116.5194 213° Southwest 331 381 10,700 -1,350 Descending Los Angeles Center
Sun 12:08:54 AM 32.8283 -116.5711 234° Southwest 321 369 9,200 -1,500 Descending Los Angeles Center
Sun 12:09:54 AM 32.7822 -116.6475 246° West 306 352 7,700 -1,150 Descending Los Angeles Center
Sun 12:10:54 AM 32.7503 -116.7311 245° Southwest 286 329 6,900 -850 Descending Los Angeles Center
Sun 12:11:54 AM 32.7228 -116.8025 252° West 263 303 6,000 -991 Descending Los Angeles Center
Sun 12:12:49 AM 32.7000 -116.8833 253° West 235 270 5,000 -1,091 Descending Southern California TRACON
Sun 12:13:55 AM 32.6833 -116.9500 270° West 226 260 3,800 -857 Descending Southern California TRACON
Sun 12:14:55 AM 32.6833 -117.0167 292° West 186 214 3,200 -1,000 Descending Southern California TRACON
Sun 12:15:55 AM 32.7000 -117.0667 292° West 161 185 1,800 -1,053 Descending Southern California TRACON
Sun 12:16:49 AM 32.7167 -117.1167 301° West 147 169 1,200 -684 Descending Southern California TRACON
Sun 12:17:49 AM 32.7333 -117.1500 271° West 146 168 500 -384 Descending Southern California TRACON
Sun 12:18:54 AM 32.7344 -117.2100 284° West 157 181 400 15,120 Descending Los Angeles Center
Sun 12:19:54 AM 32.7444 -117.2594 284° West 157 181 32,000 15,800 Climbing Los Angeles Center
Sun 12:20:54 AM 32.7525 -117.2992 83° East 157 181 32,000  Level Los Angeles Center
Sun 12:21:54 AM 32.7664 -117.1586 45° Northeast 420 483 32,000  Level Los Angeles Center
Sun 12:22:54 AM 32.8336 -117.0778 43° Northeast 420 483 32,000  Level Los Angeles Center
Sun 12:23:54 AM 32.9033 -116.9994 43° Northeast 420 483 32,000  Level Los Angeles Center

Login

Don't have an account? Register now (free) for customized features, flight alerts, and more!